sensor_id;sensor_type;location;lat;lon;timestamp;P1;durP1;ratioP1;P2;durP2;ratioP2
6467;SDS011;3267;48.794;9.928;2023-01-26T05:02:25;4.90;;;3.80;;
6467;SDS011;3267;48.794;9.928;2023-01-26T05:04:53;5.30;;;4.03;;
6467;SDS011;3267;48.794;9.928;2023-01-26T05:07:19;5.77;;;4.17;;
6467;SDS011;3267;48.794;9.928;2023-01-26T05:09:46;6.53;;;4.43;;
6467;SDS011;3267;48.794;9.928;2023-01-26T05:12:12;7.53;;;4.90;;
6467;SDS011;3267;48.794;9.928;2023-01-26T05:14:57;8.03;;;5.90;;
6467;SDS011;3267;48.794;9.928;2023-01-26T05:17:23;8.97;;;5.30;;
6467;SDS011;3267;48.794;9.928;2023-01-26T05:19:50;5.93;;;4.47;;
6467;SDS011;3267;48.794;9.928;2023-01-26T05:22:16;6.00;;;3.90;;
6467;SDS011;3267;48.794;9.928;2023-01-26T05:24:42;4.80;;;3.80;;
6467;SDS011;3267;48.794;9.928;2023-01-26T05:27:08;3.73;;;3.10;;
6467;SDS011;3267;48.794;9.928;2023-01-26T05:29:47;5.33;;;4.30;;
6467;SDS011;3267;48.794;9.928;2023-01-26T05:32:14;4.70;;;3.80;;
6467;SDS011;3267;48.794;9.928;2023-01-26T05:34:40;5.07;;;3.90;;
6467;SDS011;3267;48.794;9.928;2023-01-26T05:37:06;6.80;;;4.90;;
6467;SDS011;3267;48.794;9.928;2023-01-26T05:39:32;5.90;;;4.40;;
6467;SDS011;3267;48.794;9.928;2023-01-26T05:41:59;8.23;;;5.13;;
6467;SDS011;3267;48.794;9.928;2023-01-26T05:44:25;8.13;;;5.43;;
6467;SDS011;3267;48.794;9.928;2023-01-26T05:46:51;5.43;;;4.57;;
6467;SDS011;3267;48.794;9.928;2023-01-26T05:49:17;7.33;;;4.93;;
6467;SDS011;3267;48.794;9.928;2023-01-26T05:51:44;6.13;;;5.03;;
6467;SDS011;3267;48.794;9.928;2023-01-26T05:54:10;6.23;;;4.80;;
6467;SDS011;3267;48.794;9.928;2023-01-26T05:56:36;7.93;;;4.77;;
6467;SDS011;3267;48.794;9.928;2023-01-26T05:59:02;8.13;;;5.33;;
6467;SDS011;3267;48.794;9.928;2023-01-26T06:01:28;5.87;;;4.73;;
6467;SDS011;3267;48.794;9.928;2023-01-26T06:03:55;7.67;;;5.20;;
6467;SDS011;3267;48.794;9.928;2023-01-26T06:06:21;7.03;;;5.27;;
6467;SDS011;3267;48.794;9.928;2023-01-26T06:08:47;5.63;;;4.63;;
6467;SDS011;3267;48.794;9.928;2023-01-26T06:11:13;6.47;;;5.50;;
6467;SDS011;3267;48.794;9.928;2023-01-26T06:13:40;5.40;;;4.00;;
6467;SDS011;3267;48.794;9.928;2023-01-26T06:16:06;5.73;;;4.80;;
6467;SDS011;3267;48.794;9.928;2023-01-26T06:18:32;6.03;;;4.43;;
6467;SDS011;3267;48.794;9.928;2023-01-26T06:20:58;7.73;;;5.13;;
6467;SDS011;3267;48.794;9.928;2023-01-26T06:23:25;6.87;;;4.40;;
6467;SDS011;3267;48.794;9.928;2023-01-26T06:25:51;5.67;;;4.40;;
6467;SDS011;3267;48.794;9.928;2023-01-26T06:28:17;6.03;;;4.60;;
6467;SDS011;3267;48.794;9.928;2023-01-26T06:30:44;5.67;;;4.50;;
6467;SDS011;3267;48.794;9.928;2023-01-26T06:33:10;4.97;;;4.47;;
6467;SDS011;3267;48.794;9.928;2023-01-26T06:35:37;6.53;;;4.53;;
6467;SDS011;3267;48.794;9.928;2023-01-26T06:38:03;6.40;;;4.50;;
6467;SDS011;3267;48.794;9.928;2023-01-26T06:40:29;6.13;;;4.93;;
6467;SDS011;3267;48.794;9.928;2023-01-26T06:42:55;5.57;;;4.53;;
6467;SDS011;3267;48.794;9.928;2023-01-26T06:45:22;6.07;;;4.60;;
6467;SDS011;3267;48.794;9.928;2023-01-26T06:47:49;6.17;;;4.50;;
6467;SDS011;3267;48.794;9.928;2023-01-26T06:50:17;6.93;;;4.57;;
6467;SDS011;3267;48.794;9.928;2023-01-26T06:52:45;6.67;;;4.47;;
6467;SDS011;3267;48.794;9.928;2023-01-26T06:55:23;5.57;;;4.13;;
6467;SDS011;3267;48.794;9.928;2023-01-26T06:57:52;5.60;;;4.77;;
6467;SDS011;3267;48.794;9.928;2023-01-26T07:00:18;4.93;;;4.00;;
6467;SDS011;3267;48.794;9.928;2023-01-26T07:02:45;6.40;;;4.10;;
6467;SDS011;3267;48.794;9.928;2023-01-26T07:05:11;6.70;;;4.33;;
6467;SDS011;3267;48.794;9.928;2023-01-26T07:07:37;5.77;;;4.40;;
6467;SDS011;3267;48.794;9.928;2023-01-26T07:10:04;5.07;;;3.20;;
6467;SDS011;3267;48.794;9.928;2023-01-26T07:12:40;3.87;;;3.27;;
6467;SDS011;3267;48.794;9.928;2023-01-26T07:15:08;4.70;;;3.47;;
6467;SDS011;3267;48.794;9.928;2023-01-26T07:17:36;3.37;;;2.97;;
6467;SDS011;3267;48.794;9.928;2023-01-26T07:20:02;4.27;;;3.30;;
6467;SDS011;3267;48.794;9.928;2023-01-26T07:22:29;5.30;;;3.73;;
6467;SDS011;3267;48.794;9.928;2023-01-26T07:24:55;5.07;;;3.27;;
6467;SDS011;3267;48.794;9.928;2023-01-26T07:27:21;4.50;;;3.63;;
6467;SDS011;3267;48.794;9.928;2023-01-26T07:29:48;4.83;;;3.53;;
6467;SDS011;3267;48.794;9.928;2023-01-26T07:32:15;3.40;;;2.90;;
6467;SDS011;3267;48.794;9.928;2023-01-26T07:34:42;5.90;;;4.03;;
6467;SDS011;3267;48.794;9.928;2023-01-26T07:37:08;3.77;;;3.20;;
6467;SDS011;3267;48.794;9.928;2023-01-26T07:39:34;5.97;;;3.60;;
6467;SDS011;3267;48.794;9.928;2023-01-26T07:42:00;5.20;;;4.30;;
6467;SDS011;3267;48.794;9.928;2023-01-26T07:44:27;5.73;;;3.63;;
6467;SDS011;3267;48.794;9.928;2023-01-26T07:46:53;6.33;;;3.57;;
6467;SDS011;3267;48.794;9.928;2023-01-26T07:49:19;5.17;;;3.70;;
6467;SDS011;3267;48.794;9.928;2023-01-26T07:51:46;5.17;;;3.80;;
6467;SDS011;3267;48.794;9.928;2023-01-26T07:54:12;7.67;;;5.33;;
6467;SDS011;3267;48.794;9.928;2023-01-26T07:56:38;3.50;;;2.93;;
6467;SDS011;3267;48.794;9.928;2023-01-26T07:59:04;3.13;;;2.30;;
6467;SDS011;3267;48.794;9.928;2023-01-26T08:01:31;4.10;;;2.83;;
6467;SDS011;3267;48.794;9.928;2023-01-26T08:03:57;3.63;;;3.10;;
6467;SDS011;3267;48.794;9.928;2023-01-26T08:06:23;5.87;;;3.87;;
6467;SDS011;3267;48.794;9.928;2023-01-26T08:08:50;4.97;;;3.93;;
6467;SDS011;3267;48.794;9.928;2023-01-26T08:11:18;5.00;;;3.77;;
6467;SDS011;3267;48.794;9.928;2023-01-26T08:13:47;5.80;;;3.87;;
6467;SDS011;3267;48.794;9.928;2023-01-26T08:16:13;5.87;;;4.50;;
6467;SDS011;3267;48.794;9.928;2023-01-26T08:18:40;6.17;;;4.77;;
6467;SDS011;3267;48.794;9.928;2023-01-26T08:21:07;7.83;;;5.17;;
6467;SDS011;3267;48.794;9.928;2023-01-26T08:23:33;6.77;;;5.03;;
6467;SDS011;3267;48.794;9.928;2023-01-26T08:26:00;6.63;;;4.97;;
6467;SDS011;3267;48.794;9.928;2023-01-26T08:28:26;8.10;;;4.70;;
6467;SDS011;3267;48.794;9.928;2023-01-26T08:30:52;7.87;;;4.93;;
6467;SDS011;3267;48.794;9.928;2023-01-26T08:33:19;5.67;;;4.50;;
6467;SDS011;3267;48.794;9.928;2023-01-26T08:35:45;7.97;;;4.60;;
6467;SDS011;3267;48.794;9.928;2023-01-26T08:38:11;4.30;;;3.90;;
6467;SDS011;3267;48.794;9.928;2023-01-26T08:40:37;5.33;;;4.10;;
6467;SDS011;3267;48.794;9.928;2023-01-26T08:43:04;8.00;;;5.83;;
6467;SDS011;3267;48.794;9.928;2023-01-26T08:45:30;6.70;;;4.90;;
6467;SDS011;3267;48.794;9.928;2023-01-26T08:47:57;8.60;;;5.10;;
6467;SDS011;3267;48.794;9.928;2023-01-26T08:50:23;5.30;;;4.33;;
6467;SDS011;3267;48.794;9.928;2023-01-26T08:52:50;5.10;;;4.43;;
6467;SDS011;3267;48.794;9.928;2023-01-26T08:55:16;4.90;;;4.00;;
6467;SDS011;3267;48.794;9.928;2023-01-26T08:57:42;4.60;;;4.20;;
6467;SDS011;3267;48.794;9.928;2023-01-26T09:00:13;5.43;;;4.53;;
6467;SDS011;3267;48.794;9.928;2023-01-26T09:02:39;7.00;;;5.00;;
6467;SDS011;3267;48.794;9.928;2023-01-26T09:05:06;5.67;;;4.97;;
6467;SDS011;3267;48.794;9.928;2023-01-26T09:07:32;6.03;;;4.77;;
6467;SDS011;3267;48.794;9.928;2023-01-26T09:09:58;5.77;;;4.77;;
6467;SDS011;3267;48.794;9.928;2023-01-26T09:12:25;8.23;;;5.33;;
6467;SDS011;3267;48.794;9.928;2023-01-26T09:14:51;6.87;;;5.13;;
6467;SDS011;3267;48.794;9.928;2023-01-26T09:17:17;7.83;;;5.67;;
6467;SDS011;3267;48.794;9.928;2023-01-26T09:19:43;7.97;;;6.53;;
6467;SDS011;3267;48.794;9.928;2023-01-26T09:22:10;9.27;;;5.83;;
6467;SDS011;3267;48.794;9.928;2023-01-26T09:24:36;12.97;;;6.17;;
6467;SDS011;3267;48.794;9.928;2023-01-26T09:27:02;10.43;;;6.77;;
6467;SDS011;3267;48.794;9.928;2023-01-26T09:29:28;6.60;;;5.70;;
6467;SDS011;3267;48.794;9.928;2023-01-26T09:31:54;7.80;;;5.33;;
6467;SDS011;3267;48.794;9.928;2023-01-26T09:34:21;7.83;;;5.20;;
6467;SDS011;3267;48.794;9.928;2023-01-26T09:36:49;7.97;;;5.90;;
6467;SDS011;3267;48.794;9.928;2023-01-26T09:39:16;6.83;;;4.23;;
6467;SDS011;3267;48.794;9.928;2023-01-26T09:42:06;5.33;;;4.53;;
6467;SDS011;3267;48.794;9.928;2023-01-26T09:44:30;7.17;;;4.80;;
6467;SDS011;3267;48.794;9.928;2023-01-26T09:49:47;6.37;;;4.40;;
6467;SDS011;3267;48.794;9.928;2023-01-26T09:52:17;6.83;;;3.60;;
6467;SDS011;3267;48.794;9.928;2023-01-26T09:54:47;5.93;;;3.53;;
6467;SDS011;3267;48.794;9.928;2023-01-26T09:57:15;3.17;;;2.87;;
6467;SDS011;3267;48.794;9.928;2023-01-26T10:02:34;5.13;;;3.17;;
6467;SDS011;3267;48.794;9.928;2023-01-26T10:05:13;4.10;;;3.70;;
6467;SDS011;3267;48.794;9.928;2023-01-26T10:07:41;4.47;;;3.87;;
6467;SDS011;3267;48.794;9.928;2023-01-26T10:10:13;4.63;;;3.93;;
6467;SDS011;3267;48.794;9.928;2023-01-26T10:12:41;5.80;;;4.77;;
6467;SDS011;3267;48.794;9.928;2023-01-26T10:15:14;6.43;;;4.97;;
6467;SDS011;3267;48.794;9.928;2023-01-26T10:17:44;6.57;;;4.77;;
6467;SDS011;3267;48.794;9.928;2023-01-26T10:22:39;4.97;;;4.30;;
6467;SDS011;3267;48.794;9.928;2023-01-26T10:25:15;7.63;;;4.97;;
6467;SDS011;3267;48.794;9.928;2023-01-26T10:27:42;5.03;;;4.20;;
6467;SDS011;3267;48.794;9.928;2023-01-26T10:30:16;5.47;;;4.53;;
6467;SDS011;3267;48.794;9.928;2023-01-26T10:32:50;4.90;;;3.30;;
6467;SDS011;3267;48.794;9.928;2023-01-26T10:35:18;4.37;;;3.90;;
6467;SDS011;3267;48.794;9.928;2023-01-26T10:37:45;6.57;;;4.53;;
6467;SDS011;3267;48.794;9.928;2023-01-26T10:40:11;7.00;;;4.57;;
6467;SDS011;3267;48.794;9.928;2023-01-26T10:42:38;7.20;;;4.57;;
6467;SDS011;3267;48.794;9.928;2023-01-26T10:45:27;4.90;;;4.40;;
6467;SDS011;3267;48.794;9.928;2023-01-26T10:48:12;5.67;;;4.20;;
6467;SDS011;3267;48.794;9.928;2023-01-26T10:50:39;4.73;;;4.27;;
6467;SDS011;3267;48.794;9.928;2023-01-26T10:53:05;4.87;;;4.30;;
6467;SDS011;3267;48.794;9.928;2023-01-26T10:55:32;4.80;;;3.90;;
6467;SDS011;3267;48.794;9.928;2023-01-26T10:58:00;4.57;;;3.30;;
6467;SDS011;3267;48.794;9.928;2023-01-26T11:00:27;5.17;;;4.07;;
6467;SDS011;3267;48.794;9.928;2023-01-26T11:02:57;4.77;;;3.90;;
6467;SDS011;3267;48.794;9.928;2023-01-26T11:05:25;6.87;;;3.87;;
6467;SDS011;3267;48.794;9.928;2023-01-26T11:07:52;4.47;;;3.53;;
6467;SDS011;3267;48.794;9.928;2023-01-26T11:10:30;5.37;;;4.03;;
6467;SDS011;3267;48.794;9.928;2023-01-26T11:13:10;6.17;;;4.33;;
6467;SDS011;3267;48.794;9.928;2023-01-26T11:15:38;6.03;;;4.63;;
6467;SDS011;3267;48.794;9.928;2023-01-26T11:18:18;5.90;;;4.00;;
6467;SDS011;3267;48.794;9.928;2023-01-26T11:23:32;7.00;;;4.80;;
6467;SDS011;3267;48.794;9.928;2023-01-26T11:26:19;6.77;;;4.83;;
6467;SDS011;3267;48.794;9.928;2023-01-26T11:28:57;8.17;;;4.87;;
6467;SDS011;3267;48.794;9.928;2023-01-26T11:31:30;7.00;;;4.73;;
6467;SDS011;3267;48.794;9.928;2023-01-26T11:39:02;6.90;;;5.27;;
6467;SDS011;3267;48.794;9.928;2023-01-26T11:49:36;7.70;;;5.67;;
6467;SDS011;3267;48.794;9.928;2023-01-26T11:52:08;7.70;;;5.20;;
6467;SDS011;3267;48.794;9.928;2023-01-26T11:57:23;6.27;;;4.37;;
6467;SDS011;3267;48.794;9.928;2023-01-26T11:59:53;6.03;;;4.50;;
6467;SDS011;3267;48.794;9.928;2023-01-26T12:04:51;7.93;;;4.60;;
6467;SDS011;3267;48.794;9.928;2023-01-26T12:07:22;6.60;;;5.37;;
6467;SDS011;3267;48.794;9.928;2023-01-26T12:09:50;5.93;;;5.03;;
6467;SDS011;3267;48.794;9.928;2023-01-26T12:20:04;8.07;;;5.07;;
6467;SDS011;3267;48.794;9.928;2023-01-26T12:22:44;8.00;;;5.53;;
6467;SDS011;3267;48.794;9.928;2023-01-26T12:25:18;7.87;;;5.57;;
6467;SDS011;3267;48.794;9.928;2023-01-26T12:27:48;7.83;;;5.13;;
6467;SDS011;3267;48.794;9.928;2023-01-26T12:32:45;8.63;;;6.53;;
6467;SDS011;3267;48.794;9.928;2023-01-26T12:35:11;8.87;;;5.90;;
6467;SDS011;3267;48.794;9.928;2023-01-26T12:37:52;7.47;;;5.50;;
6467;SDS011;3267;48.794;9.928;2023-01-26T12:40:32;7.83;;;5.20;;
6467;SDS011;3267;48.794;9.928;2023-01-26T12:43:21;6.00;;;4.53;;
6467;SDS011;3267;48.794;9.928;2023-01-26T12:45:52;6.10;;;4.43;;
6467;SDS011;3267;48.794;9.928;2023-01-26T12:48:21;5.60;;;4.27;;
6467;SDS011;3267;48.794;9.928;2023-01-26T12:50:49;6.47;;;4.73;;
6467;SDS011;3267;48.794;9.928;2023-01-26T12:53:21;7.37;;;4.63;;
6467;SDS011;3267;48.794;9.928;2023-01-26T12:58:22;7.63;;;4.57;;
6467;SDS011;3267;48.794;9.928;2023-01-26T13:00:50;7.33;;;5.10;;
6467;SDS011;3267;48.794;9.928;2023-01-26T13:03:19;7.63;;;4.97;;
6467;SDS011;3267;48.794;9.928;2023-01-26T13:10:55;7.23;;;4.97;;
6467;SDS011;3267;48.794;9.928;2023-01-26T13:13:34;6.47;;;4.73;;
6467;SDS011;3267;48.794;9.928;2023-01-26T13:18:46;8.10;;;5.30;;
6467;SDS011;3267;48.794;9.928;2023-01-26T13:21:24;7.20;;;4.87;;
6467;SDS011;3267;48.794;9.928;2023-01-26T13:23:51;7.40;;;5.57;;
6467;SDS011;3267;48.794;9.928;2023-01-26T13:26:18;7.80;;;5.73;;
6467;SDS011;3267;48.794;9.928;2023-01-26T13:28:45;9.80;;;6.47;;
6467;SDS011;3267;48.794;9.928;2023-01-26T13:31:12;8.20;;;5.07;;
6467;SDS011;3267;48.794;9.928;2023-01-26T13:33:39;8.10;;;4.80;;
6467;SDS011;3267;48.794;9.928;2023-01-26T13:36:09;6.43;;;4.97;;
6467;SDS011;3267;48.794;9.928;2023-01-26T13:38:41;7.83;;;5.03;;
6467;SDS011;3267;48.794;9.928;2023-01-26T13:41:09;6.80;;;4.70;;
6467;SDS011;3267;48.794;9.928;2023-01-26T13:43:39;6.90;;;4.27;;
6467;SDS011;3267;48.794;9.928;2023-01-26T13:46:23;5.67;;;4.70;;
6467;SDS011;3267;48.794;9.928;2023-01-26T13:51:58;7.77;;;5.50;;
6467;SDS011;3267;48.794;9.928;2023-01-26T13:54:24;6.77;;;5.20;;
6467;SDS011;3267;48.794;9.928;2023-01-26T13:57:01;7.60;;;5.37;;
6467;SDS011;3267;48.794;9.928;2023-01-26T13:59:28;9.17;;;5.70;;
6467;SDS011;3267;48.794;9.928;2023-01-26T14:01:55;8.60;;;5.73;;
6467;SDS011;3267;48.794;9.928;2023-01-26T14:04:23;6.77;;;4.53;;
6467;SDS011;3267;48.794;9.928;2023-01-26T14:09:20;6.97;;;5.17;;
6467;SDS011;3267;48.794;9.928;2023-01-26T14:11:58;7.80;;;5.60;;
6467;SDS011;3267;48.794;9.928;2023-01-26T14:14:26;7.43;;;5.03;;
6467;SDS011;3267;48.794;9.928;2023-01-26T14:16:53;7.33;;;5.63;;
6467;SDS011;3267;48.794;9.928;2023-01-26T14:19:22;9.73;;;5.77;;
6467;SDS011;3267;48.794;9.928;2023-01-26T14:24:18;6.37;;;4.73;;
6467;SDS011;3267;48.794;9.928;2023-01-26T14:26:49;7.77;;;5.27;;
6467;SDS011;3267;48.794;9.928;2023-01-26T14:29:23;7.10;;;5.53;;
6467;SDS011;3267;48.794;9.928;2023-01-26T14:31:50;7.30;;;5.00;;
6467;SDS011;3267;48.794;9.928;2023-01-26T14:34:27;6.70;;;5.20;;
6467;SDS011;3267;48.794;9.928;2023-01-26T14:42:51;7.13;;;5.10;;
6467;SDS011;3267;48.794;9.928;2023-01-26T14:45:21;7.27;;;5.00;;
6467;SDS011;3267;48.794;9.928;2023-01-26T14:47:47;6.60;;;5.10;;
6467;SDS011;3267;48.794;9.928;2023-01-26T14:50:16;8.53;;;5.83;;
6467;SDS011;3267;48.794;9.928;2023-01-26T14:52:46;8.87;;;6.00;;
6467;SDS011;3267;48.794;9.928;2023-01-26T14:55:16;8.27;;;5.70;;
6467;SDS011;3267;48.794;9.928;2023-01-26T14:57:47;8.83;;;5.90;;
6467;SDS011;3267;48.794;9.928;2023-01-26T15:00:26;8.27;;;5.53;;
6467;SDS011;3267;48.794;9.928;2023-01-26T15:02:54;7.83;;;4.87;;
6467;SDS011;3267;48.794;9.928;2023-01-26T15:05:22;11.37;;;6.20;;
6467;SDS011;3267;48.794;9.928;2023-01-26T15:08:02;7.73;;;5.63;;
6467;SDS011;3267;48.794;9.928;2023-01-26T15:10:41;9.07;;;6.30;;
6467;SDS011;3267;48.794;9.928;2023-01-26T15:15:41;6.30;;;5.10;;
6467;SDS011;3267;48.794;9.928;2023-01-26T15:23:21;8.97;;;5.97;;
6467;SDS011;3267;48.794;9.928;2023-01-26T15:25:48;8.03;;;5.90;;
6467;SDS011;3267;48.794;9.928;2023-01-26T15:28:18;8.33;;;6.13;;
6467;SDS011;3267;48.794;9.928;2023-01-26T15:30:46;9.83;;;6.90;;
6467;SDS011;3267;48.794;9.928;2023-01-26T15:35:59;9.13;;;6.23;;
6467;SDS011;3267;48.794;9.928;2023-01-26T15:38:25;8.17;;;5.97;;
6467;SDS011;3267;48.794;9.928;2023-01-26T15:40:51;9.30;;;5.80;;
6467;SDS011;3267;48.794;9.928;2023-01-26T15:43:21;12.50;;;6.90;;
6467;SDS011;3267;48.794;9.928;2023-01-26T15:45:57;9.73;;;5.93;;
6467;SDS011;3267;48.794;9.928;2023-01-26T15:48:25;10.93;;;7.10;;
6467;SDS011;3267;48.794;9.928;2023-01-26T15:50:55;12.60;;;6.57;;
6467;SDS011;3267;48.794;9.928;2023-01-26T15:53:22;10.10;;;6.70;;
6467;SDS011;3267;48.794;9.928;2023-01-26T15:55:49;10.83;;;7.03;;
6467;SDS011;3267;48.794;9.928;2023-01-26T15:58:23;7.57;;;6.60;;
6467;SDS011;3267;48.794;9.928;2023-01-26T16:00:50;10.43;;;6.73;;
6467;SDS011;3267;48.794;9.928;2023-01-26T16:03:17;10.40;;;6.50;;
6467;SDS011;3267;48.794;9.928;2023-01-26T16:05:47;9.73;;;6.80;;
6467;SDS011;3267;48.794;9.928;2023-01-26T16:08:15;9.93;;;6.10;;
6467;SDS011;3267;48.794;9.928;2023-01-26T16:10:41;8.87;;;6.30;;
6467;SDS011;3267;48.794;9.928;2023-01-26T16:13:09;10.10;;;6.47;;
6467;SDS011;3267;48.794;9.928;2023-01-26T16:18:02;9.57;;;6.20;;
6467;SDS011;3267;48.794;9.928;2023-01-26T16:20:28;11.30;;;7.37;;
6467;SDS011;3267;48.794;9.928;2023-01-26T16:22:56;10.03;;;7.10;;
6467;SDS011;3267;48.794;9.928;2023-01-26T16:25:24;10.43;;;7.17;;
6467;SDS011;3267;48.794;9.928;2023-01-26T16:27:51;9.10;;;6.17;;
6467;SDS011;3267;48.794;9.928;2023-01-26T16:30:18;10.07;;;6.57;;
6467;SDS011;3267;48.794;9.928;2023-01-26T16:32:47;9.57;;;6.57;;
6467;SDS011;3267;48.794;9.928;2023-01-26T16:35:15;9.60;;;6.83;;
6467;SDS011;3267;48.794;9.928;2023-01-26T16:37:41;12.00;;;7.43;;
6467;SDS011;3267;48.794;9.928;2023-01-26T16:40:08;9.97;;;7.10;;
6467;SDS011;3267;48.794;9.928;2023-01-26T16:42:35;10.43;;;6.53;;
6467;SDS011;3267;48.794;9.928;2023-01-26T16:45:04;11.10;;;6.90;;
6467;SDS011;3267;48.794;9.928;2023-01-26T16:47:30;10.63;;;7.33;;
6467;SDS011;3267;48.794;9.928;2023-01-26T16:49:57;10.23;;;7.27;;
6467;SDS011;3267;48.794;9.928;2023-01-26T16:52:24;8.40;;;6.27;;
6467;SDS011;3267;48.794;9.928;2023-01-26T16:54:51;9.47;;;7.10;;
6467;SDS011;3267;48.794;9.928;2023-01-26T16:57:18;11.10;;;6.40;;
6467;SDS011;3267;48.794;9.928;2023-01-26T16:59:44;10.37;;;6.83;;
6467;SDS011;3267;48.794;9.928;2023-01-26T17:02:16;10.60;;;6.40;;
6467;SDS011;3267;48.794;9.928;2023-01-26T17:04:45;10.70;;;7.40;;
6467;SDS011;3267;48.794;9.928;2023-01-26T17:07:11;9.17;;;6.70;;
6467;SDS011;3267;48.794;9.928;2023-01-26T17:09:38;9.20;;;6.57;;
6467;SDS011;3267;48.794;9.928;2023-01-26T17:12:04;9.20;;;6.53;;
6467;SDS011;3267;48.794;9.928;2023-01-26T17:14:31;8.97;;;6.70;;
6467;SDS011;3267;48.794;9.928;2023-01-26T17:16:58;10.07;;;7.53;;
6467;SDS011;3267;48.794;9.928;2023-01-26T17:19:24;9.07;;;6.40;;
6467;SDS011;3267;48.794;9.928;2023-01-26T17:21:50;10.47;;;6.37;;
6467;SDS011;3267;48.794;9.928;2023-01-26T17:24:16;9.70;;;6.87;;
6467;SDS011;3267;48.794;9.928;2023-01-26T17:26:43;10.57;;;7.17;;
6467;SDS011;3267;48.794;9.928;2023-01-26T17:29:09;9.83;;;6.50;;
6467;SDS011;3267;48.794;9.928;2023-01-26T17:31:37;13.37;;;7.60;;
6467;SDS011;3267;48.794;9.928;2023-01-26T17:34:03;11.03;;;7.00;;
6467;SDS011;3267;48.794;9.928;2023-01-26T17:36:29;9.93;;;7.07;;
6467;SDS011;3267;48.794;9.928;2023-01-26T17:38:56;11.07;;;7.10;;
6467;SDS011;3267;48.794;9.928;2023-01-26T17:41:23;10.90;;;6.97;;
6467;SDS011;3267;48.794;9.928;2023-01-26T17:43:50;11.20;;;6.73;;
6467;SDS011;3267;48.794;9.928;2023-01-26T17:46:18;12.13;;;7.47;;
6467;SDS011;3267;48.794;9.928;2023-01-26T17:48:44;14.07;;;7.83;;
6467;SDS011;3267;48.794;9.928;2023-01-26T17:51:12;10.83;;;6.90;;
6467;SDS011;3267;48.794;9.928;2023-01-26T17:53:41;10.97;;;7.70;;
6467;SDS011;3267;48.794;9.928;2023-01-26T17:56:09;12.37;;;7.57;;
6467;SDS011;3267;48.794;9.928;2023-01-26T17:58:41;9.93;;;7.20;;
6467;SDS011;3267;48.794;9.928;2023-01-26T18:01:10;15.10;;;8.27;;
6467;SDS011;3267;48.794;9.928;2023-01-26T18:03:40;17.63;;;8.73;;
6467;SDS011;3267;48.794;9.928;2023-01-26T18:06:07;20.30;;;9.37;;
6467;SDS011;3267;48.794;9.928;2023-01-26T18:08:34;12.40;;;7.73;;
6467;SDS011;3267;48.794;9.928;2023-01-26T18:11:02;12.80;;;7.10;;
6467;SDS011;3267;48.794;9.928;2023-01-26T18:13:29;15.97;;;9.50;;
6467;SDS011;3267;48.794;9.928;2023-01-26T18:15:56;12.97;;;8.03;;
6467;SDS011;3267;48.794;9.928;2023-01-26T18:18:26;14.30;;;8.57;;
6467;SDS011;3267;48.794;9.928;2023-01-26T18:20:53;11.47;;;7.17;;
6467;SDS011;3267;48.794;9.928;2023-01-26T18:23:20;10.60;;;7.50;;
6467;SDS011;3267;48.794;9.928;2023-01-26T18:25:46;12.07;;;7.70;;
6467;SDS011;3267;48.794;9.928;2023-01-26T18:28:15;10.47;;;6.97;;
6467;SDS011;3267;48.794;9.928;2023-01-26T18:30:42;11.90;;;7.13;;
6467;SDS011;3267;48.794;9.928;2023-01-26T18:33:08;12.70;;;7.57;;
6467;SDS011;3267;48.794;9.928;2023-01-26T18:35:34;13.80;;;7.13;;
6467;SDS011;3267;48.794;9.928;2023-01-26T18:38:00;11.87;;;6.97;;
6467;SDS011;3267;48.794;9.928;2023-01-26T18:40:27;9.73;;;6.30;;
6467;SDS011;3267;48.794;9.928;2023-01-26T18:42:55;8.47;;;6.17;;
6467;SDS011;3267;48.794;9.928;2023-01-26T18:45:22;8.73;;;6.23;;
6467;SDS011;3267;48.794;9.928;2023-01-26T18:47:48;8.83;;;6.00;;
6467;SDS011;3267;48.794;9.928;2023-01-26T18:50:18;9.13;;;6.13;;
6467;SDS011;3267;48.794;9.928;2023-01-26T18:52:44;8.77;;;6.00;;
6467;SDS011;3267;48.794;9.928;2023-01-26T18:55:11;8.23;;;6.33;;
6467;SDS011;3267;48.794;9.928;2023-01-26T18:57:40;9.40;;;6.60;;
6467;SDS011;3267;48.794;9.928;2023-01-26T19:00:07;9.33;;;6.80;;
6467;SDS011;3267;48.794;9.928;2023-01-26T19:02:33;10.27;;;6.20;;
6467;SDS011;3267;48.794;9.928;2023-01-26T19:05:07;9.73;;;6.50;;
6467;SDS011;3267;48.794;9.928;2023-01-26T19:07:33;8.17;;;6.43;;
6467;SDS011;3267;48.794;9.928;2023-01-26T19:09:59;10.23;;;7.03;;
6467;SDS011;3267;48.794;9.928;2023-01-26T19:12:26;10.20;;;6.43;;
6467;SDS011;3267;48.794;9.928;2023-01-26T19:14:52;8.60;;;5.90;;
6467;SDS011;3267;48.794;9.928;2023-01-26T19:17:18;12.13;;;6.70;;
6467;SDS011;3267;48.794;9.928;2023-01-26T19:19:44;8.10;;;5.80;;
6467;SDS011;3267;48.794;9.928;2023-01-26T19:22:17;8.37;;;6.13;;
6467;SDS011;3267;48.794;9.928;2023-01-26T19:24:43;7.63;;;5.60;;
6467;SDS011;3267;48.794;9.928;2023-01-26T19:27:09;8.07;;;5.90;;
6467;SDS011;3267;48.794;9.928;2023-01-26T19:29:35;9.13;;;6.20;;
6467;SDS011;3267;48.794;9.928;2023-01-26T19:32:02;9.97;;;6.50;;
6467;SDS011;3267;48.794;9.928;2023-01-26T19:34:28;7.33;;;5.27;;
6467;SDS011;3267;48.794;9.928;2023-01-26T19:36:56;8.90;;;5.30;;
6467;SDS011;3267;48.794;9.928;2023-01-26T19:39:22;8.33;;;5.63;;
6467;SDS011;3267;48.794;9.928;2023-01-26T19:41:48;8.33;;;6.30;;
6467;SDS011;3267;48.794;9.928;2023-01-26T19:44:14;9.70;;;5.97;;
6467;SDS011;3267;48.794;9.928;2023-01-26T19:46:41;6.47;;;5.33;;
6467;SDS011;3267;48.794;9.928;2023-01-26T19:49:07;9.33;;;5.80;;
6467;SDS011;3267;48.794;9.928;2023-01-26T19:51:36;9.33;;;6.17;;
6467;SDS011;3267;48.794;9.928;2023-01-26T19:54:02;9.67;;;6.43;;
6467;SDS011;3267;48.794;9.928;2023-01-26T19:56:30;10.03;;;5.77;;
6467;SDS011;3267;48.794;9.928;2023-01-26T19:58:57;11.00;;;6.13;;
6467;SDS011;3267;48.794;9.928;2023-01-26T20:01:24;6.90;;;4.73;;
6467;SDS011;3267;48.794;9.928;2023-01-26T20:03:58;7.80;;;5.00;;
6467;SDS011;3267;48.794;9.928;2023-01-26T20:06:26;6.53;;;4.97;;
6467;SDS011;3267;48.794;9.928;2023-01-26T20:08:54;9.40;;;6.10;;
6467;SDS011;3267;48.794;9.928;2023-01-26T20:11:21;9.90;;;6.47;;
6467;SDS011;3267;48.794;9.928;2023-01-26T20:14:07;8.83;;;6.07;;
6467;SDS011;3267;48.794;9.928;2023-01-26T20:16:35;10.30;;;5.90;;
6467;SDS011;3267;48.794;9.928;2023-01-26T20:19:01;7.97;;;5.33;;
6467;SDS011;3267;48.794;9.928;2023-01-26T20:21:29;8.70;;;5.40;;
6467;SDS011;3267;48.794;9.928;2023-01-26T20:23:55;6.60;;;4.77;;
6467;SDS011;3267;48.794;9.928;2023-01-26T20:26:22;8.73;;;5.50;;
6467;SDS011;3267;48.794;9.928;2023-01-26T20:28:49;7.07;;;5.20;;
6467;SDS011;3267;48.794;9.928;2023-01-26T20:31:17;8.00;;;5.43;;
6467;SDS011;3267;48.794;9.928;2023-01-26T20:33:44;6.27;;;4.43;;
6467;SDS011;3267;48.794;9.928;2023-01-26T20:36:15;5.17;;;4.03;;
6467;SDS011;3267;48.794;9.928;2023-01-26T20:38:41;5.77;;;4.30;;
6467;SDS011;3267;48.794;9.928;2023-01-26T20:41:08;7.97;;;5.13;;
6467;SDS011;3267;48.794;9.928;2023-01-26T20:43:35;6.77;;;4.53;;
6467;SDS011;3267;48.794;9.928;2023-01-26T20:46:05;5.77;;;4.60;;
6467;SDS011;3267;48.794;9.928;2023-01-26T20:48:32;6.37;;;4.60;;
6467;SDS011;3267;48.794;9.928;2023-01-26T20:50:58;7.23;;;5.67;;
6467;SDS011;3267;48.794;9.928;2023-01-26T20:53:25;6.47;;;4.47;;
6467;SDS011;3267;48.794;9.928;2023-01-26T20:55:57;5.93;;;4.50;;
6467;SDS011;3267;48.794;9.928;2023-01-26T20:58:23;8.23;;;4.90;;
6467;SDS011;3267;48.794;9.928;2023-01-26T21:00:50;5.83;;;4.23;;
6467;SDS011;3267;48.794;9.928;2023-01-26T21:03:16;5.83;;;4.67;;
6467;SDS011;3267;48.794;9.928;2023-01-26T21:05:43;7.27;;;5.07;;
6467;SDS011;3267;48.794;9.928;2023-01-26T21:08:09;7.80;;;6.10;;
6467;SDS011;3267;48.794;9.928;2023-01-26T21:10:35;5.97;;;4.63;;
6467;SDS011;3267;48.794;9.928;2023-01-26T21:13:02;6.87;;;4.90;;
6467;SDS011;3267;48.794;9.928;2023-01-26T21:15:28;6.00;;;4.97;;
6467;SDS011;3267;48.794;9.928;2023-01-26T21:17:54;8.27;;;4.93;;
6467;SDS011;3267;48.794;9.928;2023-01-26T21:20:20;18.53;;;12.00;;
6467;SDS011;3267;48.794;9.928;2023-01-26T21:22:47;9.17;;;5.97;;
6467;SDS011;3267;48.794;9.928;2023-01-26T21:25:13;7.93;;;6.13;;
6467;SDS011;3267;48.794;9.928;2023-01-26T21:27:39;8.07;;;5.50;;
6467;SDS011;3267;48.794;9.928;2023-01-26T21:30:05;8.47;;;5.60;;
6467;SDS011;3267;48.794;9.928;2023-01-26T21:32:32;8.50;;;5.47;;
6467;SDS011;3267;48.794;9.928;2023-01-26T21:34:58;9.13;;;5.47;;
6467;SDS011;3267;48.794;9.928;2023-01-26T21:37:24;6.13;;;4.37;;